Imperial Beach, CA (91933)

10:38 AM PST on December 22, 2014 (GMT -0800)
KCAIMPER2 | Change Station
CLOSE
Current Station
Personal Weather Station
Location: Imperial Beach, CA
Elevation: 14 ft
Nearby Weather Stations
Active Advisory: Beach Hazard Statement

Elev 14 ft 32.58 °N, 117.13 °W | Updated 7 minutes ago

Partly Cloudy
Partly Cloudy
63.7 °F
Feels Like 63.7 °F
N
3.0
Wind Variable Wind from NW
Gusts 5.0 mph

Today
High -- | Low -- °F
--% Chance of Precip.
Yesterday
High -- | Low -- °F
Precip. -- in
6:46 AM 4:47 PM
New Moon, 1% visible
Pressure 30.05 in
Visibility 10.0 miles
Clouds Few 22000 ft
Dew Point 55 °F
Humidity 73%
Rainfall 0.00 in
Snow Depth Not available.
UV 3 out of 12
Pollen 5.10 out of 12
Air Quality Not available.
Flu Activity Not available.
METAR KNRS 221756Z 01005KT 10SM FEW220 19/11 A3005 RMK AO2 SLP175 T01890106 10189 20111 53005 $

More Conditions Fewer Conditions

Pressure 30.05 in
Visibility 10.0 miles
Clouds Few 22000 ft
Dew Point 55 °F
Humidity 73%
Rainfall 0.00 in
Snow Depth Not available.
UV 3 out of 12
Pollen 5.10 out of 12
Air Quality Not available.
Flu Activity Not available.
METAR KNRS 221756Z 01005KT 10SM FEW220 19/11 A3005 RMK AO2 SLP175 T01890106 10189 20111 53005 $

More Conditions Fewer Conditions

10-Day Weather Forecast

Almanac

Astronomy

Dec. 22, 2014 Rise Set
Actual Time
Civil Twilight
Nautical Twilight
Astronomical Twilight
Moon
Length of Visible Light
Length of Day
Tomorrow will be .
, % of the Moon is Illuminated

Today's Extremes

State Highs State Lows

Community

WunderPhotos

Upload Photos

1,779,671 photos uploaded!

WunderBlogs® & News

Nearby

Air Quality

  Air Quality AQ Index Pollutant
Not available.

Snow Depth

Station Depth Elevation

Earthquake Activity

City Distance Mag. Time & Date
Minimum magnitude displayed is 2.5.

Coastal Water Temperatures

Place Temperature

Nearby Weather Stations